Thunder radar more information blitzortung!


Rain radar more information rain snow radar


altri nostri siti meteo:

PomeziameteoStazione ufficiale di Pomezia

MeteopomeziaSito sulle condizioni meteo



Problemi di comunicazione, Vai direttamente al sito di Meteoalarm : www.meteoalarm.eu e controlla gli allarmi .

Report METAR

   
LIMP - Parma
Dati ricevuti: 14-06-2024 09:50
Sereno  
Sereno  
   Vento: SW 18.5 km/h
Vento: SW 18.5 km/h
Temperatura: 22°C
P.to Rugiada: 13°C
Umidita: 57%
Barometro: 1017 hPa
Visibilita: oltre 10 km
dettagli cloud: Sereno
LIMP 140750Z 22010KT 190V250 CAVOK 22/13 Q1017
LIPE - Bologna
Dati ricevuti: 14-06-2024 10:20
Sereno  
Sereno  
   Vento: Variabile 3.7 km/h
Vento: Variabile 3.7 km/h
Temperatura: 23°C
P.to Rugiada: 11°C
Umidita: 47%
Barometro: 1016 hPa
Visibilita: oltre 10 km
dettagli cloud: Sereno
LIPE 140820Z VRB02KT CAVOK 23/11 Q1016
LIPO - Brescia/Montichi
Dati ricevuti: 14-06-2024 10:20
Poche nuvole  
Poche nuvole  
   Vento: NE 9.3 km/h
Vento: NE 9.3 km/h
Temperatura: 21°C
P.to Rugiada: 14°C
Umidita: 64%
Barometro: 1017 hPa
Nuvole: Poche nuvole
Visibilita: oltre 10 km
dettagli cloud: Poche nuvole 8900 ft
LIPO 140820Z AUTO 06005KT 010V110 9999 FEW089/// 21/14 Q1017
LIPF - Ferrara
Dati ricevuti: 14-06-2024 09:55
Parzialmente nuvoloso  
Parzialmente nuvoloso  
   Vento: calma
Vento: calma
Temperatura: 23°C
P.to Rugiada: 16°C
Umidita: 65%
Barometro: 1017 hPa
Nuvole: Parzialmente nuvoloso
Visibilita: oltre 10 km
dettagli cloud: Parzialmente nuvoloso 8000 ft
LIPF 140755Z 00000KT 9999 SCT080 23/16 Q1017
LIPL - Ghedi
Dati ricevuti: 14-06-2024 09:55
Molto nuvoloso  
Molto nuvoloso  
   Vento: Oriente 13 km/h
Vento: Oriente 13 km/h
Temperatura: 20°C
P.to Rugiada: 16°C
Umidita: 78%
Barometro: 1016 hPa
Nuvole: Molto nuvoloso
Visibilita: oltre 10 km
dettagli cloud: Molto nuvoloso 9000 ft
LIPL 140755Z 09007KT 9999 BKN090 20/16 Q1016
LIVC - Monte Cimone
Dati ricevuti: 14-06-2024 09:55
  
  
   Vento: SE 11.1 km/h
Vento: SE 11.1 km/h
Temperatura: 8°C
Temperatura Vento: 6°C
P.to Rugiada: 3°C
Umidita: 71%
Barometro: 1022 hPa
LIVC 140755Z AUTO 12006KT //// 08/03 Q1022
LIMS - Piacenza
Dati ricevuti: 14-06-2024 09:55
Sereno  
Sereno  
   Vento: W 3.7 km/h
Vento: W 3.7 km/h
Temperatura: 21°C
P.to Rugiada: 17°C
Umidita: 78%
Barometro: 1016 hPa
Visibilita: oltre 10 km
dettagli cloud: Sereno
LIMS 140755Z 29002KT CAVOK 21/17 Q1016
LIMT - Passo della Cisa
Dati ricevuti: 23-09-2019 13:55
DATI Obsoleti
Nebbia  
Nebbia  
   Vento: calma
Vento: calma
Temperatura: 10°C
P.to Rugiada: 10°C
Umidita: 100%
Barometro: 1014 hPa
Visibilita: 0 km
dettagli cloud: Coperto
LIMT 231155Z 00000KT 0000 FG VV/// 10/10 Q1014 RMK MON INVIS VAL INVIS VIS MIN 0000
LIPU - Padova
Dati ricevuti: 14-06-2024 09:50
Sereno  
Sereno  
   Vento: Variabile 3.7 km/h
Vento: Variabile 3.7 km/h
Temperatura: 21°C
P.to Rugiada: 13°C
Umidita: 60%
Barometro: 1017 hPa
Visibilita: oltre 10 km
dettagli cloud: Sereno
LIPU 140750Z VRB02KT CAVOK 21/13 Q1017

Script sviluppato da  Saratoga-weather.org Adattato per il modello da  Weerstation Leuven

Strumentazione usata:

Stazione meteo
Davis VP2

Programma gestore dati meteo
WVIEW

Server per i dati meteo
Pc-WDS5

Provider
Pc-WDS5

Davis VP2

WVIEW

Pc-WDS5

Pc-WDS5